Borger, TX

10:57 PM CST on January 16, 2017 (GMT -0600)
Yucca Park | | Change Station

Elev 3156 ft 35.65 °N, 101.38 °W | Updated 14 seconds ago

Overcast
Overcast
37.0 °F
Feels Like 37 °F
N
2.0
Wind Variable Wind from NW
Gusts 6.0 mph

Today
High -- | Low -- °F
--% Chance of Precip.
Yesterday
High -- | Low -- °F
Precip. -- in
Pressure 30.19 in
Visibility 10.0 miles
Clouds Overcast 1900 ft
Windchill 37 °F
Dew Point 34 °F
Humidity 87%
Rainfall 0.00 in
Snow Depth Not available.
7:54 AM 5:57 PM
Waning Gibbous, 75% visible
METAR KBGD 170451Z AUTO VRB04KT 10SM OVC019 03/01 A3015 RMK AO2 SLP221 T00330011 $
Pressure 30.19 in
Visibility 10.0 miles
Clouds Overcast 1900 ft
Windchill 37 °F
Dew Point 34 °F
Humidity 87%
Rainfall 0.00 in
Snow Depth Not available.
7:54 AM 5:57 PM
Waning Gibbous, 75% visible
METAR KBGD 170451Z AUTO VRB04KT 10SM OVC019 03/01 A3015 RMK AO2 SLP221 T00330011 $

Get Your Daily Forecast Email!

Thanks for signing up!

Be on the lookout for a verification email in your inbox.

You'll start receiving the daily forecast at 8 AM.

×

10-Day Weather Forecast

Almanac

Astronomy

Jan. 16, 2017 Rise Set
Actual Time
Civil Twilight
Nautical Twilight
Astronomical Twilight
Moon
Length of Visible Light
Length of Day
Tomorrow will be .
, % of the Moon is Illuminated

Today's Extremes

State Highs State Lows

Community

WunderPhotos

Upload Photos

1,962,540 photos uploaded!

WunderBlog® & News

Nearby

Air Quality

  Air Quality AQ Index Pollutant
Not available.

Snow Depth

Station Depth Elevation

Earthquake Activity

City Distance Mag. Time & Date
Minimum magnitude displayed is 2.5.

Coastal Water Temperatures

Place Temperature

Stations

Nearby Weather Stations

Station Location Temp. Windchill Dew Point Humidity Wind Precip. Elev Updated Type
                   

Watches & Warnings

There are currently no watches in effect.